createdAt,value
2023-04-15T00:00:12.442Z,37.72
2023-04-15T00:02:46.256Z,43.33
2023-04-15T00:05:14.608Z,47.28
2023-04-15T00:07:42.826Z,60.15
2023-04-15T00:10:11.391Z,63.08
2023-04-15T00:12:39.521Z,73.47
2023-04-15T00:15:09.529Z,107.38
2023-04-15T00:17:37.801Z,101.15
2023-04-15T00:20:07.176Z,97.00
2023-04-15T00:22:35.307Z,110.60
2023-04-15T00:25:03.859Z,105.03
2023-04-15T00:27:32.253Z,94.07
2023-04-15T00:30:00.478Z,83.13
2023-04-15T00:32:28.655Z,62.38
2023-04-15T00:34:56.980Z,41.70
2023-04-15T00:37:25.351Z,33.95
2023-04-15T00:39:53.841Z,29.45
2023-04-15T00:42:22.378Z,31.85
2023-04-15T00:44:50.687Z,25.25
2023-04-15T00:47:20.905Z,26.13
2023-04-15T00:49:49.274Z,41.03
2023-04-15T00:52:17.378Z,32.45
2023-04-15T00:54:45.728Z,31.60
2023-04-15T00:57:13.925Z,24.58
2023-04-15T00:59:42.243Z,25.00
2023-04-15T01:02:10.578Z,34.53
2023-04-15T01:04:38.884Z,32.72
2023-04-15T01:07:07.244Z,35.20
2023-04-15T01:09:35.475Z,37.28
2023-04-15T01:12:04.570Z,33.05
2023-04-15T01:14:34.097Z,31.85
2023-04-15T01:17:02.573Z,34.58
2023-04-15T01:19:31.220Z,29.10
2023-04-15T01:21:59.566Z,32.85
2023-04-15T01:24:30.932Z,30.42
2023-04-15T01:26:59.265Z,31.92
2023-04-15T01:29:27.579Z,35.22
2023-04-15T01:31:56.965Z,33.42
2023-04-15T01:34:27.469Z,24.83
2023-04-15T01:36:55.680Z,30.77
2023-04-15T01:39:23.967Z,27.92
2023-04-15T01:41:52.286Z,37.60
2023-04-15T01:44:20.378Z,33.55
2023-04-15T01:46:48.697Z,33.67
2023-04-15T01:49:16.885Z,27.25
2023-04-15T01:51:45.240Z,34.85
2023-04-15T01:54:14.208Z,30.92
2023-04-15T01:56:42.417Z,41.13
2023-04-15T01:59:11.113Z,28.30
2023-04-15T02:01:39.936Z,37.20
2023-04-15T02:04:08.250Z,28.45
2023-04-15T02:06:36.612Z,28.58
2023-04-15T02:09:04.844Z,33.58
2023-04-15T02:11:33.181Z,19.33
2023-04-15T02:14:01.392Z,24.33
2023-04-15T02:16:29.681Z,26.80
2023-04-15T02:18:58.043Z,29.20
2023-04-15T02:21:27.946Z,35.22
2023-04-15T02:23:56.285Z,36.70
2023-04-15T02:26:24.565Z,38.65
2023-04-15T02:28:55.929Z,39.15
2023-04-15T02:31:24.282Z,34.85
2023-04-15T02:33:53.563Z,40.90
2023-04-15T02:36:21.900Z,39.05
2023-04-15T02:38:50.037Z,40.08
2023-04-15T02:41:18.588Z,44.60
2023-04-15T02:43:47.087Z,43.58
2023-04-15T02:46:15.991Z,45.38
2023-04-15T02:48:44.185Z,34.45
2023-04-15T02:51:19.928Z,36.67
2023-04-15T02:53:49.576Z,33.92
2023-04-15T02:56:17.905Z,44.20
2023-04-15T02:58:46.879Z,33.28
2023-04-15T03:01:15.111Z,40.63
2023-04-15T03:03:43.509Z,31.73
2023-04-15T03:06:16.085Z,31.50
2023-04-15T03:08:45.229Z,33.05
2023-04-15T03:11:15.712Z,37.17
2023-04-15T03:13:44.344Z,32.75
2023-04-15T03:16:24.233Z,35.25
2023-04-15T03:18:52.695Z,31.58
2023-04-15T03:21:22.558Z,32.55
2023-04-15T03:23:50.809Z,36.40
2023-04-15T03:26:31.188Z,42.83
2023-04-15T03:29:07.412Z,32.28
2023-04-15T03:31:35.788Z,33.88
2023-04-15T03:34:04.229Z,34.72
2023-04-15T03:36:32.914Z,30.05
2023-04-15T03:39:01.460Z,33.30
2023-04-15T03:41:29.994Z,38.67
2023-04-15T03:43:58.260Z,35.22
2023-04-15T03:46:26.479Z,31.30
2023-04-15T03:48:54.659Z,26.80
2023-04-15T03:51:22.911Z,34.55
2023-04-15T03:53:51.237Z,29.25
2023-04-15T03:56:19.322Z,25.00
2023-04-15T03:58:47.573Z,30.33
2023-04-15T04:01:15.713Z,31.45
2023-04-15T04:03:44.130Z,38.67
2023-04-15T04:06:12.412Z,36.05
2023-04-15T04:08:40.637Z,27.00
2023-04-15T04:11:08.811Z,27.83
2023-04-15T04:13:37.207Z,24.98
2023-04-15T04:16:05.742Z,26.17
2023-04-15T04:18:34.065Z,32.83
2023-04-15T04:21:02.503Z,32.53
2023-04-15T04:23:30.728Z,34.35
2023-04-15T04:25:58.887Z,41.53
2023-04-15T04:28:27.055Z,34.22
2023-04-15T04:30:55.259Z,31.08
2023-04-15T04:33:23.751Z,33.65
2023-04-15T04:35:51.790Z,26.55
2023-04-15T04:38:20.069Z,30.10
2023-04-15T04:40:48.321Z,37.08
2023-04-15T04:43:16.835Z,21.42
2023-04-15T04:45:44.904Z,29.30
2023-04-15T04:48:13.163Z,40.08
2023-04-15T04:50:41.529Z,40.47
2023-04-15T04:53:09.776Z,47.25
2023-04-15T04:55:37.919Z,62.65
2023-04-15T04:58:06.032Z,60.63
2023-04-15T05:00:34.325Z,62.00
2023-04-15T05:03:02.630Z,65.93
2023-04-15T05:05:30.880Z,65.00
2023-04-15T05:07:59.231Z,61.28
2023-04-15T05:10:27.391Z,67.40
2023-04-15T05:12:55.723Z,78.45
2023-04-15T05:15:23.759Z,89.70
2023-04-15T05:17:52.051Z,93.75
2023-04-15T05:20:20.309Z,85.65
2023-04-15T05:22:48.480Z,88.35
2023-04-15T05:25:16.873Z,86.05
2023-04-15T05:27:45.200Z,91.80
2023-04-15T05:30:13.894Z,83.85
2023-04-15T05:32:42.251Z,89.75
2023-04-15T05:35:10.525Z,83.07
2023-04-15T05:37:38.720Z,77.90
2023-04-15T05:40:07.400Z,85.78
2023-04-15T05:42:36.478Z,69.18
2023-04-15T05:45:05.533Z,78.70
2023-04-15T05:47:33.827Z,73.53
2023-04-15T05:50:02.031Z,63.88
2023-04-15T05:52:30.450Z,68.82
2023-04-15T05:54:58.586Z,80.88
2023-04-15T05:57:26.749Z,86.15
2023-04-15T05:59:54.991Z,67.22
2023-04-15T06:02:23.249Z,73.70
2023-04-15T06:04:51.598Z,76.20
2023-04-15T06:07:19.776Z,76.22
2023-04-15T06:09:48.104Z,70.30
2023-04-15T06:12:16.707Z,74.97
2023-04-15T06:14:44.811Z,69.68
2023-04-15T06:17:13.094Z,89.63
2023-04-15T06:19:41.252Z,81.10
2023-04-15T06:22:10.433Z,82.63
2023-04-15T06:24:38.551Z,80.07
2023-04-15T06:27:06.828Z,66.88
2023-04-15T06:29:34.957Z,69.30
2023-04-15T06:32:03.243Z,66.60
2023-04-15T06:34:31.434Z,71.50
2023-04-15T06:36:59.695Z,66.30
2023-04-15T06:39:28.060Z,73.28
2023-04-15T06:41:56.240Z,69.68
2023-04-15T06:44:24.430Z,70.15
2023-04-15T06:46:52.732Z,69.22
2023-04-15T06:49:20.986Z,67.13
2023-04-15T06:51:49.693Z,62.22
2023-04-15T06:54:17.762Z,76.20
2023-04-15T06:56:46.100Z,65.43
2023-04-15T06:59:14.533Z,63.50
2023-04-15T07:01:42.881Z,73.57
2023-04-15T07:04:11.285Z,65.88
2023-04-15T07:06:39.478Z,64.03
2023-04-15T07:09:07.796Z,62.55
2023-04-15T07:11:36.135Z,72.60
2023-04-15T07:14:04.378Z,67.18
2023-04-15T07:16:32.601Z,60.10
2023-04-15T07:19:01.372Z,62.92
2023-04-15T07:21:29.981Z,62.05
2023-04-15T07:23:58.073Z,46.13
2023-04-15T07:26:26.405Z,57.80
2023-04-15T07:28:54.580Z,59.78
2023-04-15T07:31:23.182Z,60.63
2023-04-15T07:33:51.435Z,55.38
2023-04-15T07:36:19.847Z,51.80
2023-04-15T07:38:48.042Z,49.00
2023-04-15T07:41:16.326Z,58.05
2023-04-15T07:43:44.558Z,57.08
2023-04-15T07:46:12.845Z,46.05
2023-04-15T07:48:41.251Z,56.80
2023-04-15T07:51:09.671Z,53.65
2023-04-15T07:53:37.865Z,59.75
2023-04-15T07:56:06.427Z,67.07
2023-04-15T07:58:34.578Z,53.08
2023-04-15T08:01:03.004Z,51.95
2023-04-15T08:03:31.308Z,58.47
2023-04-15T08:05:59.815Z,63.63
2023-04-15T08:08:27.994Z,62.90
2023-04-15T08:10:56.427Z,82.75
2023-04-15T08:13:24.500Z,73.05
2023-04-15T08:16:15.221Z,75.63
2023-04-15T08:18:43.483Z,92.82
2023-04-15T08:21:12.601Z,73.00
2023-04-15T08:23:41.263Z,62.70
2023-04-15T08:26:09.773Z,65.55
2023-04-15T08:28:40.449Z,58.45
2023-04-15T08:31:09.434Z,75.43
2023-04-15T08:33:37.857Z,65.53
2023-04-15T08:36:06.086Z,69.18
2023-04-15T08:38:34.876Z,52.17
2023-04-15T08:41:22.266Z,41.28
2023-04-15T08:43:57.566Z,41.55
2023-04-15T08:46:26.590Z,53.53
2023-04-15T08:48:58.817Z,59.80
2023-04-15T08:51:27.748Z,61.58
2023-04-15T08:53:56.250Z,52.05
2023-04-15T08:56:28.738Z,50.00
2023-04-15T08:58:57.513Z,51.25
2023-04-15T09:01:26.087Z,57.13
2023-04-15T09:03:54.863Z,55.30
2023-04-15T09:06:24.330Z,46.85
2023-04-15T09:08:53.231Z,64.20
2023-04-15T09:11:23.003Z,64.68
2023-04-15T09:13:51.426Z,58.28
2023-04-15T09:16:19.707Z,57.28
2023-04-15T09:18:47.911Z,57.45
2023-04-15T09:21:17.599Z,57.60
2023-04-15T09:24:00.594Z,47.08
2023-04-15T09:26:47.124Z,39.85
2023-04-15T09:29:15.496Z,45.88
2023-04-15T09:31:43.721Z,64.13
2023-04-15T09:34:12.089Z,44.95
2023-04-15T09:36:50.979Z,45.35
2023-04-15T09:39:19.546Z,48.47
2023-04-15T09:41:47.760Z,39.75
2023-04-15T09:44:25.930Z,47.97
2023-04-15T09:46:54.219Z,31.35
2023-04-15T09:49:22.434Z,39.75
2023-04-15T09:52:01.662Z,27.88
2023-04-15T09:54:37.673Z,36.92
2023-04-15T09:57:10.339Z,42.58
2023-04-15T09:59:38.929Z,49.08
2023-04-15T10:02:07.594Z,41.47
2023-04-15T10:04:42.081Z,73.32
2023-04-15T10:07:12.310Z,36.35
2023-04-15T10:09:40.759Z,37.63
2023-04-15T10:12:09.521Z,44.20
2023-04-15T10:14:39.291Z,63.00
2023-04-15T10:17:11.556Z,64.70
2023-04-15T10:19:41.128Z,44.97
2023-04-15T10:22:09.788Z,38.85
2023-04-15T10:24:39.477Z,43.17
2023-04-15T10:27:08.507Z,58.85
2023-04-15T10:29:37.233Z,49.70
2023-04-15T10:32:05.697Z,41.30
2023-04-15T10:34:34.620Z,53.15
2023-04-15T10:37:03.902Z,73.25
2023-04-15T10:39:43.475Z,56.72
2023-04-15T10:42:16.996Z,108.85
2023-04-15T10:44:49.653Z,83.68
2023-04-15T10:47:20.267Z,41.47
2023-04-15T10:49:57.593Z,70.97
2023-04-15T10:52:28.171Z,55.30
2023-04-15T10:55:15.222Z,53.03
2023-04-15T10:57:44.991Z,102.60
2023-04-15T11:00:17.436Z,109.25
2023-04-15T11:02:59.082Z,70.53
2023-04-15T11:05:53.752Z,78.90
2023-04-15T11:09:00.254Z,64.60
2023-04-15T11:12:13.000Z,58.13
2023-04-15T11:14:42.008Z,60.05
2023-04-15T11:17:10.261Z,42.92
2023-04-15T11:19:39.460Z,36.30
2023-04-15T11:22:11.352Z,48.08
2023-04-15T11:27:23.473Z,67.43
2023-04-15T11:29:51.907Z,39.38
2023-04-15T11:32:22.192Z,72.47
2023-04-15T11:34:53.068Z,92.47
2023-04-15T11:37:29.946Z,67.53
2023-04-15T11:39:58.190Z,68.38
2023-04-15T11:42:31.481Z,52.63
2023-04-15T11:45:08.252Z,43.88
2023-04-15T11:50:24.209Z,57.10
2023-04-15T11:52:55.665Z,39.87
2023-04-15T11:55:24.917Z,46.45
2023-04-15T11:58:19.235Z,52.63
2023-04-15T12:00:52.733Z,49.80
2023-04-15T12:03:31.387Z,53.40
2023-04-15T12:06:22.500Z,54.00
2023-04-15T12:09:13.395Z,50.17
2023-04-15T12:11:50.009Z,46.92
2023-04-15T12:14:29.250Z,51.38
2023-04-15T12:17:00.472Z,38.67
2023-04-15T12:22:11.215Z,31.38
2023-04-15T12:24:40.870Z,25.23
2023-04-15T12:27:11.884Z,38.47
2023-04-15T12:29:41.543Z,46.10
2023-04-15T12:32:15.194Z,45.95
2023-04-15T12:34:54.053Z,50.67
2023-04-15T12:37:22.611Z,28.45
2023-04-15T12:39:51.245Z,26.10
2023-04-15T12:42:19.451Z,25.65
2023-04-15T12:44:47.859Z,45.10
2023-04-15T12:47:16.403Z,32.30
2023-04-15T12:49:44.575Z,26.42
2023-04-15T12:52:12.731Z,40.53
2023-04-15T12:54:41.141Z,24.52
2023-04-15T12:57:09.508Z,37.20
2023-04-15T12:59:37.695Z,31.13
2023-04-15T13:02:06.221Z,44.42
2023-04-15T13:04:34.545Z,27.27
2023-04-15T13:07:03.448Z,36.78
2023-04-15T13:09:31.659Z,44.97
2023-04-15T13:11:59.927Z,41.85
2023-04-15T13:14:28.054Z,37.08
2023-04-15T13:16:56.445Z,30.48
2023-04-15T13:19:24.671Z,35.88
2023-04-15T13:21:52.835Z,40.25
2023-04-15T13:24:21.248Z,31.30
2023-04-15T13:26:50.497Z,33.90
2023-04-15T13:29:18.750Z,24.38
2023-04-15T13:31:47.331Z,34.22
2023-04-15T13:34:15.478Z,29.30
2023-04-15T13:36:43.869Z,34.42
2023-04-15T13:39:12.147Z,23.75
2023-04-15T13:41:41.206Z,40.45
2023-04-15T13:44:09.347Z,37.65
2023-04-15T13:46:37.676Z,32.65
2023-04-15T13:49:05.739Z,35.67
2023-04-15T13:51:33.884Z,40.17
2023-04-15T13:54:02.525Z,37.97
2023-04-15T13:56:32.899Z,41.55
2023-04-15T13:59:01.562Z,34.80
2023-04-15T14:01:30.300Z,26.40
2023-04-15T14:03:58.520Z,31.23
2023-04-15T14:06:27.032Z,25.08
2023-04-15T14:08:56.285Z,20.38
2023-04-15T14:11:24.395Z,27.13
2023-04-15T14:13:52.632Z,52.13
2023-04-15T14:16:20.927Z,40.95
2023-04-15T14:18:49.027Z,30.42
2023-04-15T14:21:17.313Z,40.67
2023-04-15T14:23:45.502Z,43.42
2023-04-15T14:26:13.727Z,34.65
2023-04-15T14:28:42.017Z,55.33
2023-04-15T14:31:10.172Z,25.98
2023-04-15T14:33:38.341Z,45.35
2023-04-15T14:36:07.408Z,31.42
2023-04-15T14:38:36.316Z,27.58
2023-04-15T14:41:08.254Z,34.85
2023-04-15T14:46:05.082Z,42.55
2023-04-15T14:48:33.552Z,36.42
2023-04-15T14:51:01.815Z,51.75
2023-04-15T14:53:29.970Z,44.13
2023-04-15T14:55:58.341Z,34.33
2023-04-15T14:58:26.651Z,35.15
2023-04-15T15:00:54.857Z,31.50
2023-04-15T15:03:24.256Z,37.30
2023-04-15T15:05:52.673Z,39.13
2023-04-15T15:08:20.802Z,36.35
2023-04-15T15:10:49.882Z,31.70
2023-04-15T15:13:19.147Z,30.73
2023-04-15T15:15:47.510Z,31.52
2023-04-15T15:18:16.476Z,31.42
2023-04-15T15:20:44.845Z,48.55
2023-04-15T15:23:15.032Z,65.90
2023-04-15T15:25:43.723Z,51.55
2023-04-15T15:28:12.170Z,32.35
2023-04-15T15:30:40.417Z,58.78
2023-04-15T15:33:08.673Z,54.92
2023-04-15T15:35:36.931Z,64.57
2023-04-15T15:38:05.526Z,57.65
2023-04-15T15:40:33.889Z,62.53
2023-04-15T15:43:02.060Z,43.60
2023-04-15T15:45:30.502Z,50.88
2023-04-15T15:47:59.201Z,44.80
2023-04-15T15:50:27.509Z,31.30
2023-04-15T15:53:06.843Z,29.77
2023-04-15T15:55:35.016Z,40.03
2023-04-15T15:58:03.208Z,40.85
2023-04-15T16:00:34.352Z,37.10
2023-04-15T16:03:07.303Z,44.65
2023-04-15T16:05:36.805Z,35.95
2023-04-15T16:08:05.342Z,36.40
2023-04-15T16:10:33.670Z,53.72
2023-04-15T16:13:01.933Z,35.28
2023-04-15T16:15:30.368Z,41.63
2023-04-15T16:17:58.640Z,35.72
2023-04-15T16:20:27.711Z,46.40
2023-04-15T16:22:58.692Z,41.88
2023-04-15T16:25:26.917Z,44.13
2023-04-15T16:28:03.530Z,32.30
2023-04-15T16:30:41.176Z,31.10
2023-04-15T16:33:10.230Z,51.63
2023-04-15T16:35:38.294Z,32.70
2023-04-15T16:38:06.574Z,38.63
2023-04-15T16:40:34.842Z,96.07
2023-04-15T16:43:03.808Z,93.03
2023-04-15T16:45:32.088Z,42.40
2023-04-15T16:48:00.395Z,56.42
2023-04-15T16:50:28.849Z,123.18
2023-04-15T16:52:56.988Z,85.95
2023-04-15T16:55:25.178Z,54.17
2023-04-15T16:58:03.346Z,61.75
2023-04-15T17:00:33.038Z,61.75
2023-04-15T17:03:05.755Z,74.15
2023-04-15T17:05:34.499Z,45.88
2023-04-15T17:08:02.892Z,55.45
2023-04-15T17:10:31.958Z,41.13
2023-04-15T17:13:00.225Z,40.90
2023-04-15T17:15:28.505Z,57.17
2023-04-15T17:17:56.833Z,82.97
2023-04-15T17:20:25.266Z,100.22
2023-04-15T17:22:53.551Z,63.67
2023-04-15T17:25:21.847Z,35.13
2023-04-15T17:27:50.100Z,54.53
2023-04-15T17:30:19.820Z,47.22
2023-04-15T17:32:48.196Z,58.42
2023-04-15T17:35:16.529Z,51.67
2023-04-15T17:37:44.604Z,55.83
2023-04-15T17:40:13.232Z,89.80
2023-04-15T17:42:41.687Z,76.53
2023-04-15T17:45:10.634Z,46.60
2023-04-15T17:47:38.858Z,151.90
2023-04-15T17:50:08.198Z,67.45
2023-04-15T17:52:36.398Z,61.72
2023-04-15T17:55:04.830Z,42.83
2023-04-15T17:57:34.042Z,57.13
2023-04-15T18:00:06.760Z,173.18
2023-04-15T18:02:40.882Z,115.30
2023-04-15T18:05:10.221Z,136.80
2023-04-15T18:07:38.399Z,89.13
2023-04-15T18:10:08.554Z,95.90
2023-04-15T18:12:36.970Z,87.95
2023-04-15T18:15:05.366Z,49.72
2023-04-15T18:17:34.273Z,238.55
2023-04-15T18:20:03.320Z,129.02
2023-04-15T18:22:31.579Z,98.55
2023-04-15T18:24:59.861Z,143.45
2023-04-15T18:27:28.676Z,97.50
2023-04-15T18:29:56.943Z,60.22
2023-04-15T18:32:25.587Z,59.20
2023-04-15T18:34:53.909Z,56.50
2023-04-15T18:37:22.162Z,51.00
2023-04-15T18:39:50.452Z,59.55
2023-04-15T18:42:18.776Z,54.70
2023-04-15T18:44:46.936Z,40.83
2023-04-15T18:47:15.586Z,55.60
2023-04-15T18:49:44.107Z,65.75
2023-04-15T18:52:12.522Z,63.30
2023-04-15T18:54:40.938Z,86.43
2023-04-15T18:57:09.213Z,138.60
2023-04-15T18:59:37.266Z,78.78
2023-04-15T19:02:05.585Z,399.27
2023-04-15T19:04:34.163Z,804.63
2023-04-15T19:07:02.868Z,771.80
2023-04-15T19:09:30.916Z,163.32
2023-04-15T19:11:59.118Z,69.55
2023-04-15T19:14:27.426Z,312.08
2023-04-15T19:16:55.583Z,111.13
2023-04-15T19:19:23.893Z,224.00
2023-04-15T19:21:53.486Z,319.95
2023-04-15T19:24:21.670Z,95.93
2023-04-15T19:26:50.821Z,51.17
2023-04-15T19:29:19.103Z,66.93
2023-04-15T19:31:47.298Z,112.68
2023-04-15T19:34:15.655Z,154.05
2023-04-15T19:36:43.946Z,376.00
2023-04-15T19:39:12.647Z,551.67
2023-04-15T19:41:40.926Z,277.75
2023-04-15T19:44:09.218Z,76.80
2023-04-15T19:46:37.523Z,42.05
2023-04-15T19:49:06.219Z,65.30
2023-04-15T19:51:34.760Z,110.13
2023-04-15T19:54:02.949Z,111.85
2023-04-15T19:56:33.634Z,115.03
2023-04-15T19:59:02.914Z,160.63
2023-04-15T20:01:31.504Z,111.43
2023-04-15T20:04:00.203Z,120.28
2023-04-15T20:06:28.664Z,199.95
2023-04-15T20:08:59.730Z,179.93
2023-04-15T20:11:28.010Z,178.67
2023-04-15T20:14:16.276Z,260.63
2023-04-15T20:16:44.576Z,199.82
2023-04-15T20:19:13.801Z,107.80
2023-04-15T20:21:42.153Z,78.15
2023-04-15T20:24:10.502Z,94.90
2023-04-15T20:26:38.878Z,196.93
2023-04-15T20:29:07.242Z,163.00
2023-04-15T20:31:35.936Z,533.67
2023-04-15T20:34:04.258Z,566.30
2023-04-15T20:36:32.470Z,645.55
2023-04-15T20:39:00.654Z,484.83
2023-04-15T20:41:28.832Z,277.55
2023-04-15T20:43:57.196Z,641.58
2023-04-15T20:46:27.385Z,872.83
2023-04-15T20:48:56.282Z,779.03
2023-04-15T20:51:24.442Z,397.40
2023-04-15T20:53:52.674Z,237.07
2023-04-15T20:56:20.964Z,272.70
2023-04-15T20:58:49.282Z,589.13
2023-04-15T21:01:17.575Z,802.17
2023-04-15T21:03:45.985Z,764.58
2023-04-15T21:06:14.384Z,691.28
2023-04-15T21:08:42.692Z,716.00
2023-04-15T21:11:11.092Z,598.72
2023-04-15T21:13:39.404Z,595.08
2023-04-15T21:16:07.762Z,519.28
2023-04-15T21:18:36.197Z,456.42
2023-04-15T21:21:04.559Z,378.33
2023-04-15T21:23:33.063Z,383.95
2023-04-15T21:26:01.270Z,186.00
2023-04-15T21:28:29.360Z,109.22
2023-04-15T21:30:58.308Z,159.73
2023-04-15T21:33:26.666Z,121.97
2023-04-15T21:35:55.192Z,185.23
2023-04-15T21:38:23.576Z,385.80
2023-04-15T21:40:51.989Z,382.40
2023-04-15T21:43:20.295Z,457.00
2023-04-15T21:46:20.838Z,586.30
2023-04-15T21:48:37.166Z,654.47
2023-04-15T21:51:05.590Z,460.65
2023-04-15T21:53:33.897Z,642.80
2023-04-15T21:56:02.291Z,575.05
2023-04-15T21:58:30.372Z,581.05
2023-04-15T22:00:58.881Z,523.05
2023-04-15T22:03:30.505Z,319.60
2023-04-15T22:05:59.111Z,225.98
2023-04-15T22:08:27.310Z,225.82
2023-04-15T22:10:56.211Z,183.73
2023-04-15T22:13:24.617Z,190.85
2023-04-15T22:15:52.890Z,230.98
2023-04-15T22:18:21.284Z,109.10
2023-04-15T22:20:49.495Z,101.72
2023-04-15T22:23:18.006Z,93.05
2023-04-15T22:25:46.580Z,65.28
2023-04-15T22:28:14.973Z,156.68
2023-04-15T22:30:43.725Z,150.43
2023-04-15T22:33:12.099Z,160.23
2023-04-15T22:35:40.597Z,142.48
2023-04-15T22:38:08.910Z,139.40
2023-04-15T22:40:37.170Z,113.80
2023-04-15T22:43:05.502Z,81.72
2023-04-15T22:45:33.826Z,70.28
2023-04-15T22:48:02.467Z,61.75
2023-04-15T22:50:30.616Z,81.28
2023-04-15T22:52:59.007Z,117.40
2023-04-15T22:55:27.279Z,118.68
2023-04-15T22:57:55.911Z,81.03
2023-04-15T23:00:24.069Z,67.22
2023-04-15T23:02:52.625Z,55.83
2023-04-15T23:05:21.224Z,53.33
2023-04-15T23:07:49.458Z,75.25
2023-04-15T23:10:17.832Z,65.45
2023-04-15T23:12:47.386Z,51.50
2023-04-15T23:15:15.880Z,54.03
2023-04-15T23:17:45.673Z,50.72
2023-04-15T23:20:13.982Z,46.00
2023-04-15T23:22:42.462Z,47.83
2023-04-15T23:25:10.953Z,46.90
2023-04-15T23:27:39.488Z,53.90
2023-04-15T23:30:08.473Z,77.57
2023-04-15T23:32:37.047Z,78.47
2023-04-15T23:35:05.985Z,76.72
2023-04-15T23:37:34.440Z,95.75
2023-04-15T23:40:02.748Z,90.95
2023-04-15T23:42:31.066Z,77.07
2023-04-15T23:44:59.411Z,71.85
2023-04-15T23:47:27.709Z,58.83
2023-04-15T23:49:55.973Z,49.08
2023-04-15T23:52:24.195Z,51.42
2023-04-15T23:54:52.502Z,42.78
2023-04-15T23:57:20.808Z,40.28
2023-04-15T23:59:48.983Z,41.15
